createdAt,value
2019-05-19T00:00:16.246Z,7.75
2019-05-19T00:02:46.518Z,8.78
2019-05-19T00:05:16.993Z,7.00
2019-05-19T00:07:47.111Z,7.97
2019-05-19T00:10:17.382Z,11.03
2019-05-19T00:12:48.134Z,9.98
2019-05-19T00:15:18.475Z,7.95
2019-05-19T00:17:48.661Z,6.85
2019-05-19T00:20:20.041Z,7.90
2019-05-19T00:22:50.214Z,6.87
2019-05-19T00:25:20.419Z,6.47
2019-05-19T00:27:50.588Z,6.05
2019-05-19T00:30:21.018Z,6.70
2019-05-19T00:32:51.231Z,10.43
2019-05-19T00:35:22.348Z,11.73
2019-05-19T00:37:52.543Z,10.30
2019-05-19T00:40:22.693Z,9.95
2019-05-19T00:42:52.913Z,8.40
2019-05-19T00:45:22.932Z,7.70
2019-05-19T00:47:52.841Z,7.00
2019-05-19T00:50:23.021Z,8.60
2019-05-19T00:52:53.902Z,6.42
2019-05-19T00:55:25.056Z,10.53
2019-05-19T00:57:55.351Z,7.72
2019-05-19T01:00:25.504Z,6.03
2019-05-19T01:02:55.700Z,6.70
2019-05-19T01:05:25.675Z,8.98
2019-05-19T01:07:55.601Z,9.98
2019-05-19T01:10:25.700Z,6.85
2019-05-19T01:12:55.571Z,8.05
2019-05-19T01:15:25.818Z,6.22
2019-05-19T01:17:55.754Z,7.05
2019-05-19T01:20:26.166Z,6.67
2019-05-19T01:22:57.141Z,7.37
2019-05-19T01:25:27.250Z,8.48
2019-05-19T01:27:57.486Z,7.30
2019-05-19T01:30:27.717Z,7.03
2019-05-19T01:32:57.822Z,7.55
2019-05-19T01:35:28.621Z,10.35
2019-05-19T01:37:58.833Z,10.48
2019-05-19T01:40:28.729Z,11.20
2019-05-19T01:42:59.832Z,10.45
2019-05-19T01:45:29.719Z,8.65
2019-05-19T01:47:59.567Z,10.25
2019-05-19T01:50:29.552Z,15.93
2019-05-19T01:53:01.672Z,9.65
2019-05-19T01:55:31.837Z,10.70
2019-05-19T01:58:01.993Z,8.65
2019-05-19T02:00:32.924Z,8.20
2019-05-19T02:03:03.347Z,7.92
2019-05-19T02:05:33.511Z,9.75
2019-05-19T02:08:03.688Z,9.63
2019-05-19T02:10:33.696Z,11.78
2019-05-19T02:13:05.247Z,10.28
2019-05-19T02:15:35.324Z,9.65
2019-05-19T02:18:05.657Z,9.08
2019-05-19T02:20:35.831Z,9.60
2019-05-19T02:23:06.793Z,7.65
2019-05-19T02:25:37.108Z,7.03
2019-05-19T02:28:07.360Z,8.35
2019-05-19T02:30:37.424Z,8.25
2019-05-19T02:33:07.596Z,7.78
2019-05-19T02:35:37.523Z,8.73
2019-05-19T02:38:07.743Z,8.48
2019-05-19T02:40:40.534Z,8.10
2019-05-19T02:43:12.188Z,10.95
2019-05-19T02:45:42.676Z,10.58
2019-05-19T02:48:13.820Z,12.50
2019-05-19T02:50:52.142Z,11.18
2019-05-19T02:53:18.402Z,12.55
2019-05-19T02:55:49.386Z,9.93
2019-05-19T02:58:19.924Z,9.95
2019-05-19T03:00:49.800Z,11.80
2019-05-19T03:03:19.902Z,11.65
2019-05-19T03:05:50.072Z,10.25
2019-05-19T03:08:20.174Z,9.45
2019-05-19T03:10:50.528Z,9.18
2019-05-19T03:13:20.713Z,9.68
2019-05-19T03:15:50.887Z,8.88
2019-05-19T03:18:21.972Z,9.10
2019-05-19T03:21:08.171Z,10.58
2019-05-19T03:23:24.008Z,11.00
2019-05-19T03:25:53.872Z,11.80
2019-05-19T03:28:25.014Z,13.22
2019-05-19T03:30:57.885Z,24.15
2019-05-19T03:33:30.685Z,21.02
2019-05-19T03:38:30.196Z,22.58
2019-05-19T03:41:00.326Z,23.65
2019-05-19T03:43:30.507Z,20.60
2019-05-19T03:46:00.732Z,19.55
2019-05-19T03:48:30.985Z,22.32
2019-05-19T03:51:01.158Z,21.60
2019-05-19T03:53:32.267Z,22.95
2019-05-19T03:56:02.475Z,20.70
2019-05-19T03:58:32.753Z,25.50
2019-05-19T04:01:02.883Z,28.45
2019-05-19T04:03:32.932Z,28.32
2019-05-19T04:06:03.122Z,27.70
2019-05-19T04:08:33.405Z,22.98
2019-05-19T04:11:03.304Z,23.42
2019-05-19T04:13:33.495Z,28.45
2019-05-19T04:16:03.833Z,26.10
2019-05-19T04:18:34.081Z,26.62
2019-05-19T04:21:04.383Z,27.48
2019-05-19T04:23:34.516Z,25.62
2019-05-19T04:26:04.743Z,24.35
2019-05-19T04:28:34.614Z,23.07
2019-05-19T04:31:04.779Z,25.95
2019-05-19T04:33:34.922Z,27.13
2019-05-19T04:36:05.248Z,26.62
2019-05-19T04:38:35.461Z,27.45
2019-05-19T04:41:05.584Z,27.90
2019-05-19T04:43:35.950Z,25.48
2019-05-19T04:46:06.092Z,22.50
2019-05-19T04:48:36.209Z,24.10
2019-05-19T04:51:06.459Z,22.65
2019-05-19T04:53:36.290Z,22.48
2019-05-19T04:56:06.175Z,20.55
2019-05-19T04:58:55.449Z,21.45
2019-05-19T05:01:25.633Z,22.15
2019-05-19T05:04:00.765Z,24.25
2019-05-19T05:06:30.905Z,22.25
2019-05-19T05:09:01.050Z,20.05
2019-05-19T05:11:31.475Z,17.40
2019-05-19T05:14:01.655Z,16.30
2019-05-19T05:16:32.811Z,22.67
2019-05-19T05:19:02.950Z,15.75
2019-05-19T05:21:32.815Z,14.95
2019-05-19T05:24:02.833Z,20.35
2019-05-19T05:26:32.788Z,20.65
2019-05-19T05:29:02.633Z,19.75
2019-05-19T05:31:33.527Z,22.22
2019-05-19T05:34:03.640Z,19.70
2019-05-19T05:36:33.741Z,20.17
2019-05-19T05:39:05.172Z,20.52
2019-05-19T05:41:35.189Z,17.37
2019-05-19T05:44:05.533Z,26.07
2019-05-19T05:46:36.723Z,22.27
2019-05-19T05:49:06.911Z,20.30
2019-05-19T05:51:37.071Z,20.23
2019-05-19T05:54:07.283Z,20.77
2019-05-19T05:56:37.174Z,23.50
2019-05-19T05:59:07.364Z,23.45
2019-05-19T06:01:37.635Z,19.35
2019-05-19T06:04:07.883Z,17.82
2019-05-19T06:06:38.066Z,19.10
2019-05-19T06:09:08.197Z,20.50
2019-05-19T06:11:38.332Z,23.62
2019-05-19T06:14:08.605Z,19.87
2019-05-19T06:16:38.837Z,19.62
2019-05-19T06:19:09.015Z,20.17
2019-05-19T06:21:38.891Z,17.95
2019-05-19T06:24:09.143Z,18.40
2019-05-19T06:26:39.328Z,20.70
2019-05-19T06:29:09.279Z,19.98
2019-05-19T06:31:39.448Z,21.68
2019-05-19T06:34:09.603Z,17.42
2019-05-19T06:36:39.706Z,14.73
2019-05-19T06:39:09.854Z,18.52
2019-05-19T06:41:40.078Z,19.02
2019-05-19T06:44:10.192Z,18.00
2019-05-19T06:46:40.339Z,16.20
2019-05-19T06:49:10.523Z,18.00
2019-05-19T06:51:41.285Z,18.10
2019-05-19T06:54:11.351Z,18.12
2019-05-19T06:56:42.813Z,15.78
2019-05-19T06:59:13.093Z,13.78
2019-05-19T07:01:44.009Z,16.67
2019-05-19T07:04:13.910Z,17.62
2019-05-19T07:06:44.635Z,18.15
2019-05-19T07:09:14.750Z,12.60
2019-05-19T07:11:44.864Z,13.45
2019-05-19T07:14:15.036Z,13.95
2019-05-19T07:16:44.902Z,13.72
2019-05-19T07:19:14.944Z,13.05
2019-05-19T07:21:45.126Z,13.75
2019-05-19T07:24:15.352Z,13.10
2019-05-19T07:26:45.352Z,17.30
2019-05-19T07:29:15.280Z,27.05
2019-05-19T07:31:45.416Z,13.08
2019-05-19T07:34:15.351Z,11.00
2019-05-19T07:36:45.279Z,19.73
2019-05-19T07:39:15.471Z,15.50
2019-05-19T07:41:45.407Z,12.93
2019-05-19T07:44:15.461Z,8.90
2019-05-19T07:46:45.309Z,9.23
2019-05-19T07:49:15.474Z,10.08
2019-05-19T07:51:45.400Z,10.15
2019-05-19T07:54:15.605Z,10.65
2019-05-19T07:56:45.911Z,13.15
2019-05-19T07:59:15.777Z,13.53
2019-05-19T08:01:45.846Z,12.53
2019-05-19T08:04:18.828Z,12.23
2019-05-19T08:06:49.986Z,12.00
2019-05-19T08:09:39.335Z,12.15
2019-05-19T08:12:11.894Z,13.62
2019-05-19T08:14:42.195Z,12.58
2019-05-19T08:17:12.310Z,12.03
2019-05-19T08:19:42.179Z,10.55
2019-05-19T08:22:12.495Z,9.95
2019-05-19T08:24:42.715Z,12.63
2019-05-19T08:27:12.844Z,10.43
2019-05-19T08:29:42.741Z,9.15
2019-05-19T08:32:12.658Z,10.05
2019-05-19T08:34:42.777Z,9.78
2019-05-19T08:37:12.997Z,10.38
2019-05-19T08:39:44.110Z,11.25
2019-05-19T08:42:14.341Z,8.58
2019-05-19T08:44:44.596Z,8.15
2019-05-19T08:47:14.827Z,12.55
2019-05-19T08:49:45.174Z,7.00
2019-05-19T08:52:15.386Z,6.72
2019-05-19T08:54:45.555Z,6.47
2019-05-19T08:57:15.916Z,6.60
2019-05-19T08:59:45.906Z,5.10
2019-05-19T09:02:16.140Z,8.13
2019-05-19T09:04:46.410Z,5.55
2019-05-19T09:07:16.664Z,5.53
2019-05-19T09:09:46.562Z,6.20
2019-05-19T09:12:16.749Z,7.12
2019-05-19T09:14:46.968Z,8.03
2019-05-19T09:17:17.243Z,7.47
2019-05-19T09:19:47.127Z,6.00
2019-05-19T09:22:17.305Z,7.85
2019-05-19T09:24:47.513Z,7.05
2019-05-19T09:27:17.576Z,6.55
2019-05-19T09:29:47.663Z,6.67
2019-05-19T09:32:17.581Z,7.03
2019-05-19T09:34:47.805Z,5.70
2019-05-19T09:37:18.001Z,7.22
2019-05-19T09:39:48.271Z,7.75
2019-05-19T09:42:18.551Z,7.75
2019-05-19T09:44:48.857Z,8.28
2019-05-19T09:47:18.839Z,6.17
2019-05-19T09:49:49.112Z,5.87
2019-05-19T09:52:20.144Z,6.37
2019-05-19T09:54:50.373Z,8.05
2019-05-19T09:57:20.274Z,5.87
2019-05-19T09:59:50.499Z,6.42
2019-05-19T10:02:20.754Z,5.05
2019-05-19T10:04:51.003Z,6.58
2019-05-19T10:07:20.963Z,4.90
2019-05-19T10:10:02.195Z,5.25
2019-05-19T10:12:33.840Z,5.05
2019-05-19T10:15:04.352Z,5.15
2019-05-19T10:17:34.685Z,3.80
2019-05-19T10:20:07.639Z,6.28
2019-05-19T10:22:37.881Z,3.40
2019-05-19T10:25:21.026Z,2.95
2019-05-19T10:27:41.208Z,4.62
2019-05-19T10:30:14.091Z,4.75
2019-05-19T10:32:44.376Z,3.30
2019-05-19T10:35:14.819Z,3.37
2019-05-19T10:37:45.024Z,3.15
2019-05-19T10:40:15.507Z,3.55
2019-05-19T10:42:45.777Z,4.62
2019-05-19T10:45:17.110Z,5.12
2019-05-19T10:47:47.434Z,3.55
2019-05-19T10:50:17.822Z,4.37
2019-05-19T10:52:48.147Z,3.00
2019-05-19T10:55:18.174Z,2.92
2019-05-19T10:57:48.386Z,4.25
2019-05-19T11:00:18.826Z,2.50
2019-05-19T11:02:48.738Z,3.50
2019-05-19T11:05:19.096Z,4.92
2019-05-19T11:07:49.013Z,4.35
2019-05-19T11:10:38.389Z,4.33
2019-05-19T11:13:08.745Z,5.22
2019-05-19T11:15:39.007Z,11.33
2019-05-19T11:18:08.996Z,5.15
2019-05-19T11:20:39.369Z,13.90
2019-05-19T11:23:09.783Z,25.88
2019-05-19T11:25:51.151Z,4.62
2019-05-19T11:28:12.272Z,8.85
2019-05-19T11:30:42.506Z,3.92
2019-05-19T11:33:12.870Z,11.50
2019-05-19T11:35:43.074Z,3.10
2019-05-19T11:38:12.960Z,10.23
2019-05-19T11:40:43.115Z,15.48
2019-05-19T11:43:16.322Z,11.65
2019-05-19T11:45:46.786Z,4.17
2019-05-19T11:48:16.827Z,17.95
2019-05-19T11:50:46.914Z,7.00
2019-05-19T11:53:18.179Z,7.45
2019-05-19T11:55:48.448Z,9.65
2019-05-19T11:58:18.379Z,12.35
2019-05-19T12:00:48.697Z,7.05
2019-05-19T12:03:20.103Z,6.75
2019-05-19T12:05:50.529Z,3.45
2019-05-19T12:08:21.005Z,3.10
2019-05-19T12:10:51.223Z,3.12
2019-05-19T12:13:21.429Z,4.25
2019-05-19T12:15:51.778Z,10.38
2019-05-19T12:18:21.751Z,3.30
2019-05-19T12:20:51.928Z,3.77
2019-05-19T12:23:22.208Z,4.08
2019-05-19T12:25:53.533Z,7.03
2019-05-19T12:28:23.832Z,3.60
2019-05-19T12:30:53.950Z,3.70
2019-05-19T12:33:25.229Z,3.80
2019-05-19T12:35:55.230Z,3.10
2019-05-19T12:38:25.216Z,4.75
2019-05-19T12:40:55.434Z,3.80
2019-05-19T12:43:25.801Z,3.83
2019-05-19T12:45:56.134Z,3.95
2019-05-19T12:48:26.391Z,5.65
2019-05-19T12:50:56.863Z,3.60
2019-05-19T12:53:27.046Z,4.05
2019-05-19T12:55:57.124Z,2.87
2019-05-19T12:58:27.245Z,3.20
2019-05-19T13:00:58.455Z,3.15
2019-05-19T13:03:28.656Z,3.67
2019-05-19T13:05:58.786Z,5.20
2019-05-19T13:08:29.038Z,4.12
2019-05-19T13:10:59.229Z,4.87
2019-05-19T13:13:29.457Z,4.10
2019-05-19T13:15:59.762Z,5.85
2019-05-19T13:18:30.088Z,3.80
2019-05-19T13:21:00.389Z,2.95
2019-05-19T13:23:31.243Z,4.55
2019-05-19T13:26:02.029Z,7.15
2019-05-19T13:28:31.962Z,4.15
2019-05-19T13:31:02.315Z,3.40
2019-05-19T13:33:32.635Z,3.12
2019-05-19T13:36:03.643Z,3.80
2019-05-19T13:38:36.945Z,3.60
2019-05-19T13:41:07.128Z,4.90
2019-05-19T13:43:39.124Z,11.03
2019-05-19T13:46:09.459Z,3.80
2019-05-19T13:48:39.832Z,3.70
2019-05-19T13:51:14.707Z,2.65
2019-05-19T13:53:45.075Z,4.60
2019-05-19T13:56:15.206Z,3.15
2019-05-19T13:58:46.742Z,2.92
2019-05-19T14:01:28.088Z,3.00
2019-05-19T14:03:52.547Z,3.17
2019-05-19T14:06:23.054Z,3.05
2019-05-19T14:08:53.493Z,5.00
2019-05-19T14:11:23.686Z,2.67
2019-05-19T14:13:54.471Z,5.12
2019-05-19T14:16:24.991Z,3.52
2019-05-19T14:18:55.289Z,3.52
2019-05-19T14:21:27.573Z,3.45
2019-05-19T14:23:58.196Z,4.47
2019-05-19T14:26:28.742Z,4.70
2019-05-19T14:28:59.070Z,2.62
2019-05-19T14:31:30.380Z,3.70
2019-05-19T14:34:01.265Z,3.87
2019-05-19T14:36:34.377Z,3.12
2019-05-19T14:39:06.316Z,4.55
2019-05-19T14:41:38.112Z,4.33
2019-05-19T14:44:12.539Z,3.25
2019-05-19T14:46:43.341Z,3.33
2019-05-19T14:49:13.644Z,4.87
2019-05-19T14:51:43.879Z,3.47
2019-05-19T14:54:14.095Z,3.95
2019-05-19T14:56:44.347Z,3.33
2019-05-19T14:59:15.145Z,7.00
2019-05-19T15:01:45.061Z,6.78
2019-05-19T15:04:15.417Z,2.92
2019-05-19T15:06:47.227Z,8.40
2019-05-19T15:09:17.414Z,4.75
2019-05-19T15:11:47.603Z,2.77
2019-05-19T15:14:17.986Z,4.05
2019-05-19T15:16:48.779Z,3.58
2019-05-19T15:19:22.455Z,4.37
2019-05-19T15:22:11.795Z,3.75
2019-05-19T15:24:41.853Z,2.72
2019-05-19T15:27:12.146Z,6.83
2019-05-19T15:29:44.774Z,4.28
2019-05-19T15:32:14.956Z,4.53
2019-05-19T15:34:45.203Z,4.35
2019-05-19T15:37:15.312Z,4.00
2019-05-19T15:39:45.194Z,2.67
2019-05-19T15:42:15.314Z,4.78
2019-05-19T15:44:45.501Z,3.05
2019-05-19T15:47:15.642Z,2.85
2019-05-19T15:49:47.595Z,4.12
2019-05-19T15:52:17.827Z,3.77
2019-05-19T15:54:48.202Z,3.52
2019-05-19T15:57:20.156Z,3.33
2019-05-19T15:59:50.502Z,4.50
2019-05-19T16:02:20.684Z,3.62
2019-05-19T16:04:51.802Z,3.47
2019-05-19T16:07:22.022Z,3.83
2019-05-19T16:09:52.323Z,3.33
2019-05-19T16:12:54.022Z,6.12
2019-05-19T16:15:26.086Z,3.40
2019-05-19T16:17:56.555Z,4.53
2019-05-19T16:20:27.215Z,5.12
2019-05-19T16:22:57.761Z,5.72
2019-05-19T16:25:28.277Z,3.62
2019-05-19T16:27:58.601Z,3.50
2019-05-19T16:30:29.057Z,3.10
2019-05-19T16:32:59.587Z,5.05
2019-05-19T16:35:30.702Z,4.72
2019-05-19T16:38:01.203Z,3.62
2019-05-19T16:40:31.535Z,5.15
2019-05-19T16:43:03.170Z,3.67
2019-05-19T16:48:03.876Z,3.85
2019-05-19T16:50:34.330Z,5.42
2019-05-19T16:53:07.616Z,4.42
2019-05-19T16:55:38.993Z,4.47
2019-05-19T16:58:20.613Z,3.85
2019-05-19T17:00:41.272Z,3.45
2019-05-19T17:03:11.785Z,6.00
2019-05-19T17:05:41.667Z,3.92
2019-05-19T17:08:11.707Z,3.10
2019-05-19T17:10:41.705Z,3.25
2019-05-19T17:13:13.927Z,6.25
2019-05-19T17:15:44.002Z,4.60
2019-05-19T17:18:14.138Z,3.72
2019-05-19T17:20:44.372Z,5.00
2019-05-19T17:23:14.918Z,8.85
2019-05-19T17:25:45.043Z,4.50
2019-05-19T17:28:15.343Z,3.67
2019-05-19T17:30:45.342Z,3.80
2019-05-19T17:33:15.660Z,4.10
2019-05-19T17:35:54.091Z,3.52
2019-05-19T17:38:24.177Z,4.33
2019-05-19T17:40:54.404Z,4.62
2019-05-19T17:43:24.622Z,2.95
2019-05-19T17:45:54.621Z,3.02
2019-05-19T17:48:26.891Z,2.98
2019-05-19T17:50:56.901Z,3.92
2019-05-19T17:53:27.175Z,3.27
2019-05-19T17:55:58.093Z,3.87
2019-05-19T17:58:30.419Z,4.60
2019-05-19T18:01:00.567Z,4.05
2019-05-19T18:03:31.302Z,4.40
2019-05-19T18:06:01.268Z,4.58
2019-05-19T18:08:31.175Z,5.45
2019-05-19T18:11:01.451Z,4.67
2019-05-19T18:13:32.672Z,6.00
2019-05-19T18:16:11.678Z,3.08
2019-05-19T18:18:42.475Z,4.78
2019-05-19T18:21:12.765Z,3.25
2019-05-19T18:23:43.068Z,5.47
2019-05-19T18:26:13.177Z,3.47
2019-05-19T18:28:43.156Z,5.05
2019-05-19T18:31:13.401Z,5.42
2019-05-19T18:33:43.696Z,5.40
2019-05-19T18:36:13.799Z,3.47
2019-05-19T18:38:44.168Z,4.42
2019-05-19T18:41:14.541Z,3.85
2019-05-19T18:43:47.445Z,4.45
2019-05-19T18:46:17.779Z,6.92
2019-05-19T18:48:48.073Z,3.85
2019-05-19T18:51:18.522Z,5.97
2019-05-19T18:53:51.945Z,6.42
2019-05-19T18:56:22.160Z,4.70
2019-05-19T18:58:52.453Z,4.78
2019-05-19T19:01:22.845Z,4.35
2019-05-19T19:03:52.884Z,4.75
2019-05-19T19:06:23.800Z,6.67
2019-05-19T19:08:55.484Z,4.28
2019-05-19T19:11:27.375Z,5.12
2019-05-19T19:13:57.751Z,4.70
2019-05-19T19:16:27.715Z,6.47
2019-05-19T19:18:59.989Z,5.08
2019-05-19T19:21:31.567Z,4.97
2019-05-19T19:24:04.031Z,4.42
2019-05-19T19:26:35.877Z,6.37
2019-05-19T19:29:06.548Z,5.35
2019-05-19T19:31:48.030Z,4.47
2019-05-19T19:34:12.760Z,4.72
2019-05-19T19:36:44.662Z,7.85
2019-05-19T19:39:15.569Z,5.95
2019-05-19T19:41:49.718Z,4.80
2019-05-19T19:44:20.091Z,5.92
2019-05-19T19:46:53.927Z,4.87
2019-05-19T19:49:25.539Z,5.47
2019-05-19T19:51:57.527Z,5.60
2019-05-19T19:54:27.870Z,5.22
2019-05-19T19:57:00.423Z,8.43
2019-05-19T19:59:30.251Z,5.35
2019-05-19T20:02:00.202Z,5.03
2019-05-19T20:04:30.498Z,7.42
2019-05-19T20:07:00.771Z,5.35
2019-05-19T20:09:30.797Z,5.17
2019-05-19T20:12:01.013Z,5.70
2019-05-19T20:14:31.342Z,5.95
2019-05-19T20:17:01.622Z,5.30
2019-05-19T20:19:32.145Z,6.47
2019-05-19T20:22:02.080Z,4.35
2019-05-19T20:24:32.368Z,4.20
2019-05-19T20:27:02.586Z,6.78
2019-05-19T20:29:32.925Z,5.28
2019-05-19T20:32:03.155Z,9.68
2019-05-19T20:34:33.382Z,4.83
2019-05-19T20:37:03.510Z,6.47
2019-05-19T20:39:37.612Z,5.47
2019-05-19T20:42:27.343Z,8.10
2019-05-19T20:45:01.063Z,5.33
2019-05-19T20:47:31.434Z,4.95
2019-05-19T20:50:01.712Z,4.33
2019-05-19T20:52:33.210Z,5.30
2019-05-19T20:55:03.601Z,5.85
2019-05-19T20:57:33.732Z,5.22
2019-05-19T21:00:05.713Z,3.92
2019-05-19T21:02:36.190Z,3.52
2019-05-19T21:05:06.465Z,5.92
2019-05-19T21:07:36.545Z,3.80
2019-05-19T21:10:07.718Z,3.30
2019-05-19T21:12:37.956Z,3.33
2019-05-19T21:15:08.333Z,3.75
2019-05-19T21:17:38.288Z,4.00
2019-05-19T21:20:08.470Z,6.67
2019-05-19T21:22:39.543Z,3.72
2019-05-19T21:25:09.921Z,5.10
2019-05-19T21:27:41.098Z,3.12
2019-05-19T21:30:11.422Z,4.15
2019-05-19T21:32:41.559Z,3.22
2019-05-19T21:35:11.632Z,4.30
2019-05-19T21:37:41.462Z,3.40
2019-05-19T21:40:11.915Z,5.92
2019-05-19T21:42:42.156Z,4.60
2019-05-19T21:45:12.677Z,2.98
2019-05-19T21:47:42.956Z,5.00
2019-05-19T21:50:12.862Z,7.45
2019-05-19T21:52:43.182Z,3.15
2019-05-19T21:55:13.592Z,5.10
2019-05-19T21:57:43.512Z,3.30
2019-05-19T22:00:14.327Z,4.20
2019-05-19T22:02:46.228Z,3.12
2019-05-19T22:05:16.615Z,2.42
2019-05-19T22:07:50.893Z,5.75
2019-05-19T22:10:21.175Z,4.12
2019-05-19T22:12:51.466Z,4.10
2019-05-19T22:15:21.644Z,2.62
2019-05-19T22:17:51.882Z,3.00
2019-05-19T22:20:23.217Z,4.12
2019-05-19T22:22:53.100Z,3.35
2019-05-19T22:25:23.277Z,3.12
2019-05-19T22:27:53.523Z,3.42
2019-05-19T22:30:23.520Z,3.35
2019-05-19T22:32:53.742Z,3.33
2019-05-19T22:35:24.069Z,4.42
2019-05-19T22:37:54.250Z,4.15
2019-05-19T22:40:24.518Z,4.92
2019-05-19T22:42:54.504Z,3.10
2019-05-19T22:45:24.401Z,4.08
2019-05-19T22:47:54.619Z,4.17
2019-05-19T22:50:24.628Z,3.72
2019-05-19T22:52:54.612Z,5.20
2019-05-19T22:55:24.591Z,3.67
2019-05-19T22:57:54.807Z,4.10
2019-05-19T23:00:26.336Z,3.80
2019-05-19T23:02:56.522Z,3.65
2019-05-19T23:05:26.789Z,3.37
2019-05-19T23:07:56.927Z,3.75
2019-05-19T23:10:28.190Z,7.65
2019-05-19T23:12:58.511Z,3.42
2019-05-19T23:15:28.502Z,3.70
2019-05-19T23:17:58.718Z,3.42
2019-05-19T23:20:28.730Z,4.45
2019-05-19T23:22:58.936Z,3.95
2019-05-19T23:25:30.147Z,3.80
2019-05-19T23:28:00.299Z,2.98
2019-05-19T23:30:30.471Z,5.33
2019-05-19T23:33:00.274Z,4.22
2019-05-19T23:35:30.635Z,2.50
2019-05-19T23:38:00.619Z,3.02
2019-05-19T23:40:30.552Z,3.65
2019-05-19T23:43:00.361Z,2.80
2019-05-19T23:45:30.466Z,2.50
2019-05-19T23:48:00.608Z,2.90
2019-05-19T23:50:30.826Z,4.15
2019-05-19T23:53:01.027Z,2.47
2019-05-19T23:55:31.330Z,2.10
2019-05-19T23:58:01.240Z,4.33
